LA HONDA (LAH)

Elevation: 425' · SAN GREGORIO CR basin · Operator: CAL FIRE

Query executed Thursday at 16:48:25   clock

Provisional data, subject to change.
Select a sensor type for a plot of data.

Earlier

Date   /   Time   RAIN     TEMP     REL HUM     FUEL MS     FUEL TP     WIND SP     WIND DR     PEAK WS     PEAK WD     SOLAR R     BAT VOL    
(PDT)INCHES   DEG F   %   %   DEG F   MPH   DEG   MPH   DEG   W/M^2   VOLTS  
08/20/2014 16:00 0.05 70 58 7 94 7 239 15 212 672.00 13.5
08/20/2014 17:00 0.05 70 59 7 90 7 244 14 208 533.00 13.6
08/20/2014 18:00 0.05 68 63 7 77 5 239 14 236 365.00 13.9
08/20/2014 19:00 0.05 63 68 8 65 4 247 12 210 81.00 13.5
08/20/2014 20:00 0.05 59 82 9 57 2 359 9 234 11.00 13.3
08/20/2014 21:00 0.05 56 88 10 53 0 326 4 35 0.00 13.1
08/20/2014 22:00 0.05 56 92 11 54 1 315 3 16 0.00 13.0
08/20/2014 23:00 0.05 55 90 13 52 1 325 4 352 0.00 12.9
08/21/2014 00:00 0.05 54 93 14 51 1 56 4 95 0.00 12.8
08/21/2014 01:00 0.05 53 93 16 52 3 79 4 85 0.00 12.8
08/21/2014 02:00 0.05 54 92 18 54 2 91 3 97 0.00 12.8
08/21/2014 03:00 0.05 55 92 19 55 1 134 7 107 0.00 12.8
08/21/2014 04:00 0.05 55 91 19 56 2 71 5 137 0.00 12.8
08/21/2014 05:00 0.05 55 91 20 56 3 103 6 94 0.00 12.7
08/21/2014 06:00 0.05 54 91 20 54 3 79 6 130 0.00 12.7
08/21/2014 07:00 0.05 53 92 21 53 3 99 3 64 9.00 12.7
08/21/2014 08:00 0.05 59 83 21 60 2 154 6 157 147.00 13.4
08/21/2014 09:00 0.05 65 71 17 69 2 189 4 167 304.00 13.8
08/21/2014 10:00 0.05 71 61 14 76 3 267 7 229 473.00 13.8
08/21/2014 11:00 0.05 76 52 11 81 3 277 7 310 627.00 13.6
08/21/2014 12:00 0.05 77 49 10 92 4 270 11 239 741.00 13.5
08/21/2014 13:00 0.05 78 48 8 101 4 259 9 227 806.00 13.5
08/21/2014 14:00 0.05 79 51 7 92 4 262 9 259 814.00 13.5
08/21/2014 15:00 0.05 80 48 7 98 4 268 9 226 768.00 13.4
08/21/2014 16:00 0.05 78 50 7 98 4 267 9 269 668.00 13.4

Later | Latest

Warning! This data is preliminary and subject to revision.

Download Data Now Download Data Now | Show LAH Map | 24 Hours LAH Data | Plot all LAH Sensors | Daily LAH Data | LAH Info